Time;durP1;ratioP1;P1;durP2;ratioP2;P2;SDS_P1;SDS_P2;PMS_P1;PMS_P2;Temp;Humidity;BMP_temperature;BMP_pressure;BME280_temperature;BME280_humidity;BME280_pressure;Samples;Min_cycle;Max_cycle;Signal;HPM_P1;HPM_P2
2023/07/08 08:25:38;;;;;;;5.28;3.00;;;26.80;66.50;;;;;;5066228;28;20759;-76
2023/07/08 08:28:03;;;;;;;6.10;3.08;;;27.40;66.00;;;;;;5065209;28;20029;-77
2023/07/08 08:30:29;;;;;;;5.63;2.92;;;27.40;65.00;;;;;;5066790;28;20409;-75
2023/07/08 08:32:56;;;;;;;6.57;3.80;;;27.40;65.70;;;;;;5067909;28;20458;-76
2023/07/08 08:35:22;;;;;;;6.30;3.00;;;27.40;64.80;;;;;;5067490;28;20512;-75
2023/07/08 08:37:48;;;;;;;5.90;2.67;;;27.50;65.70;;;;;;5067923;28;20104;-76
2023/07/08 08:40:18;;;;;;;6.10;2.88;;;27.70;65.80;;;;;;5067740;28;20029;-76
2023/07/08 08:43:05;;;;;;;5.00;2.63;;;27.80;66.10;;;;;;5067803;28;20047;-77
2023/07/08 08:45:39;;;;;;;6.20;3.10;;;27.90;65.70;;;;;;5058474;28;20499;-76
2023/07/08 08:48:11;;;;;;;8.43;3.97;;;28.00;64.00;;;;;;5050681;28;20029;-76
2023/07/08 08:50:51;;;;;;;6.82;3.47;;;28.00;64.10;;;;;;5052453;28;20025;-76
2023/07/08 08:53:18;;;;;;;8.73;4.80;;;;;;;;;;5049709;28;20056;-78
2023/07/08 08:55:50;;;;;;;6.90;3.67;;;28.10;62.10;;;;;;5049732;28;20028;-78
2023/07/08 08:58:31;;;;;;;4.95;2.60;;;28.10;63.60;;;;;;5049741;28;20048;-77
2023/07/08 09:00:58;;;;;;;11.80;4.50;;;28.20;64.50;;;;;;5050430;28;20049;-78
2023/07/08 09:03:36;;;;;;;6.03;2.90;;;28.30;63.70;;;;;;5049905;28;20021;-77
2023/07/08 09:06:18;;;;;;;5.60;3.47;;;28.40;65.10;;;;;;5050323;28;20021;-78
2023/07/08 09:08:44;;;;;;;6.47;3.20;;;28.50;63.60;;;;;;5049345;28;20025;-79
2023/07/08 09:11:14;;;;;;;8.98;3.90;;;28.70;64.00;;;;;;5049190;28;20035;-76
2023/07/08 09:13:40;;;;;;;5.97;3.10;;;28.90;64.10;;;;;;5047894;28;20094;-78
2023/07/08 09:16:27;;;;;;;7.43;4.15;;;29.10;63.10;;;;;;5066598;28;20446;-78
2023/07/08 09:18:58;;;;;;;10.15;3.85;;;29.10;63.30;;;;;;5045682;28;20036;-77
2023/07/08 09:21:29;;;;;;;6.97;4.38;;;29.30;62.00;;;;;;5044856;28;20025;-77
2023/07/08 09:24:00;;;;;;;8.27;4.40;;;29.50;62.50;;;;;;5044978;28;20395;-77
2023/07/08 09:26:30;;;;;;;5.32;2.83;;;29.60;60.20;;;;;;5046677;28;20034;-79
2023/07/08 09:28:56;;;;;;;7.60;4.13;;;29.90;63.40;;;;;;5046328;28;20040;-78
2023/07/08 09:31:31;;;;;;;9.02;4.57;;;30.00;60.40;;;;;;5049404;28;20025;-78
2023/07/08 09:34:06;;;;;;;8.75;4.25;;;30.00;59.90;;;;;;5049058;28;20064;-78
2023/07/08 09:36:31;;;;;;;6.07;3.85;;;30.10;60.90;;;;;;5032635;28;20025;-78
2023/07/08 09:38:57;;;;;;;6.40;3.22;;;30.20;59.60;;;;;;5030085;28;20055;-78
2023/07/08 09:41:31;;;;;;;7.50;3.70;;;30.20;61.50;;;;;;5030750;28;20045;-79
2023/07/08 09:44:26;;;;;;;6.43;3.40;;;30.40;61.60;;;;;;5029169;28;20410;-79
2023/07/08 09:46:53;;;;;;;5.60;3.00;;;30.70;61.50;;;;;;5030782;28;20034;-78
2023/07/08 09:49:27;;;;;;;8.70;4.82;;;30.80;59.00;;;;;;5030306;28;20044;-78
2023/07/08 09:51:54;;;;;;;8.13;3.70;;;31.00;57.90;;;;;;5031017;28;20042;-78
2023/07/08 09:54:22;;;;;;;6.00;3.42;;;31.10;57.80;;;;;;5030879;28;20036;-79
2023/07/08 09:57:01;;;;;;;7.10;3.80;;;31.30;60.10;;;;;;5032014;28;20029;-79
2023/07/08 09:59:36;;;;;;;6.53;3.28;;;31.40;59.50;;;;;;5032337;28;20025;-79
2023/07/08 10:02:17;;;;;;;8.25;4.30;;;31.60;60.20;;;;;;5033025;28;20457;-79
2023/07/08 10:04:43;;;;;;;6.53;3.55;;;31.80;58.00;;;;;;5031691;28;20056;-78
2023/07/08 10:07:16;;;;;;;6.32;3.53;;;31.90;58.60;;;;;;5030789;28;20021;-79
2023/07/08 10:09:42;;;;;;;6.05;3.53;;;32.00;60.00;;;;;;5032381;28;20026;-79
2023/07/08 10:12:13;;;;;;;7.25;4.10;;;32.10;58.90;;;;;;5031708;28;20030;-79
2023/07/08 10:14:50;;;;;;;11.40;4.82;;;32.30;57.40;;;;;;5032488;28;20448;-79
2023/07/08 10:17:19;;;;;;;10.60;5.45;;;32.50;54.40;;;;;;5032234;28;20044;-79
2023/07/08 10:19:45;;;;;;;12.13;5.50;;;32.50;54.70;;;;;;5032157;28;20025;-78
2023/07/08 10:22:32;;;;;;;11.00;5.07;;;32.50;53.90;;;;;;5031850;28;20022;-80
2023/07/08 10:25:04;;;;;;;6.68;3.63;;;32.40;53.90;;;;;;5031523;28;20045;-80
2023/07/08 10:27:54;;;;;;;6.80;3.47;;;32.50;56.10;;;;;;5031352;28;20104;-79
2023/07/08 10:30:26;;;;;;;5.20;3.03;;;32.40;57.70;;;;;;5030198;28;20029;-79
2023/07/08 10:33:08;;;;;;;8.63;4.80;;;32.60;60.90;;;;;;5032647;28;20022;-79
2023/07/08 10:35:36;;;;;;;6.32;4.03;;;32.70;56.60;;;;;;5032518;28;20083;-80
2023/07/08 10:38:16;;;;;;;10.02;5.28;;;32.80;55.70;;;;;;5032191;28;20025;-79
2023/07/08 10:40:59;;;;;;;7.07;4.55;;;32.90;53.70;;;;;;5031894;28;20025;-79
2023/07/08 10:43:44;;;;;;;7.10;4.20;;;33.00;57.10;;;;;;5031426;28;20475;-78
2023/07/08 10:46:21;;;;;;;8.05;5.28;;;33.10;54.60;;;;;;5032006;28;20112;-78
2023/07/08 10:49:24;;;;;;;6.18;3.80;;;33.10;54.40;;;;;;5031037;28;20064;-80
2023/07/08 10:52:17;;;;;;;10.00;4.88;;;33.20;59.50;;;;;;5029810;28;20228;-80
2023/07/08 10:54:51;;;;;;;6.32;4.00;;;33.20;55.20;;;;;;5030582;28;20169;-79
2023/07/08 10:57:25;;;;;;;7.40;4.25;;;33.20;55.40;;;;;;5030312;28;20026;-80
2023/07/08 11:00:15;;;;;;;8.23;4.55;;;33.30;55.70;;;;;;5030625;28;20026;-80
2023/07/08 11:02:47;;;;;;;7.05;4.32;;;33.40;56.30;;;;;;5030586;28;20029;-81
2023/07/08 11:05:37;;;;;;;7.20;4.63;;;33.60;55.00;;;;;;5030560;28;20044;-78
2023/07/08 11:08:21;;;;;;;8.82;4.63;;;33.70;54.60;;;;;;5029321;28;20468;-78
2023/07/08 11:11:17;;;;;;;4.80;3.20;;;33.90;56.40;;;;;;5031174;28;20025;-79
2023/07/08 11:14:06;;;;;;;7.40;3.63;;;34.10;59.90;;;;;;5030531;28;20034;-79
2023/07/08 11:16:37;;;;;;;6.32;3.10;;;34.30;57.60;;;;;;5029958;28;20483;-79
2023/07/08 11:19:15;;;;;;;6.35;3.50;;;34.40;59.80;;;;;;5031010;28;20032;-80
2023/07/08 11:21:45;;;;;;;6.63;3.47;;;34.50;60.20;;;;;;5031092;28;20049;-78
2023/07/08 11:24:51;;;;;;;5.10;3.08;;;34.60;60.60;;;;;;5030380;28;20057;-79
2023/07/08 11:27:38;;;;;;;6.00;3.13;;;34.80;60.20;;;;;;5029537;28;20042;-78
2023/07/08 11:30:19;;;;;;;11.10;4.68;;;34.90;60.00;;;;;;5030296;28;20072;-79
2023/07/08 11:32:58;;;;;;;6.05;3.50;;;34.90;55.30;;;;;;5029758;28;20112;-77
2023/07/08 11:35:36;;;;;;;6.93;3.40;;;34.90;59.10;;;;;;5029970;28;20033;-79
2023/07/08 11:38:03;;;;;;;6.82;4.43;;;34.80;57.00;;;;;;5030246;28;20022;-78
2023/07/08 11:40:28;;;;;;;5.43;3.33;;;34.80;55.70;;;;;;5027993;28;20464;-78
2023/07/08 11:43:03;;;;;;;5.25;3.38;;;34.80;60.00;;;;;;5029854;28;20025;-78
2023/07/08 11:45:36;;;;;;;7.25;4.30;;;34.90;59.20;;;;;;5030655;28;20103;-79
2023/07/08 11:48:18;;;;;;;9.05;4.97;;;34.90;57.90;;;;;;5030020;28;20091;-80
2023/07/08 11:50:49;;;;;;;12.35;3.85;;;34.90;52.90;;;;;;5029427;28;20813;-79
2023/07/08 11:53:30;;;;;;;6.60;2.88;;;35.00;60.30;;;;;;5029508;28;20020;-80
2023/07/08 11:56:01;;;;;;;7.05;4.35;;;35.10;60.30;;;;;;5029358;28;20298;-79
2023/07/08 11:58:31;;;;;;;6.72;4.40;;;35.20;55.40;;;;;;5029173;28;20037;-79
2023/07/08 12:01:19;;;;;;;7.47;4.60;;;35.10;52.70;;;;;;5029428;28;20029;-79
2023/07/08 12:04:15;;;;;;;8.52;4.63;;;35.20;54.20;;;;;;5029311;28;20030;-79
2023/07/08 12:06:49;;;;;;;6.75;4.20;;;35.20;55.10;;;;;;5029099;28;20160;-79
2023/07/08 12:09:22;;;;;;;6.72;3.92;;;35.20;53.50;;;;;;5029114;28;20044;-78
2023/07/08 12:11:51;;;;;;;7.38;4.13;;;35.20;52.80;;;;;;5029286;28;20037;-78
2023/07/08 12:14:16;;;;;;;7.13;3.87;;;35.40;58.20;;;;;;5029619;28;20037;-75
2023/07/08 12:16:43;;;;;;;5.90;3.70;;;35.60;59.10;;;;;;5027323;28;20013;-77
2023/07/08 12:19:13;;;;;;;5.93;3.70;;;35.70;61.20;;;;;;5029477;28;20096;-76
2023/07/08 12:21:41;;;;;;;8.38;5.00;;;35.70;58.60;;;;;;5029152;28;20472;-77
2023/07/08 12:24:07;;;;;;;8.73;5.40;;;35.60;52.20;;;;;;5028869;28;20061;-76
2023/07/08 12:26:36;;;;;;;6.85;4.45;;;35.60;50.90;;;;;;5028895;28;20379;-75
2023/07/08 12:29:02;;;;;;;6.75;4.72;;;35.50;59.60;;;;;;5029068;28;20045;-75
2023/07/08 12:31:31;;;;;;;8.27;4.22;;;35.60;54.50;;;;;;5029328;28;20068;-74
2023/07/08 12:33:58;;;;;;;8.75;4.40;;;35.70;60.50;;;;;;5027998;28;20112;-75
2023/07/08 12:36:30;;;;;;;10.18;5.53;;;35.70;57.60;;;;;;5027480;28;20463;-76
2023/07/08 12:38:57;;;;;;;7.53;5.45;;;35.70;51.20;;;;;;5028583;28;20045;-78
2023/07/08 12:41:31;;;;;;;11.02;6.63;;;35.70;54.90;;;;;;5027285;28;20112;-77
2023/07/08 12:43:58;;;;;;;8.57;4.65;;;35.60;48.30;;;;;;5027631;28;20359;-77
2023/07/08 12:46:25;;;;;;;8.57;4.70;;;35.60;51.10;;;;;;5026153;28;20476;-78
2023/07/08 12:48:52;;;;;;;13.50;6.13;;;35.80;49.70;;;;;;5026896;28;20067;-77
2023/07/08 12:51:20;;;;;;;9.90;6.03;;;36.10;48.20;;;;;;5027361;28;20108;-76
2023/07/08 12:53:46;;;;;;;6.95;4.68;;;36.20;47.10;;;;;;5028414;28;20072;-76
2023/07/08 12:56:13;;;;;;;9.63;5.85;;;36.20;48.90;;;;;;5028308;28;20120;-76
2023/07/08 12:58:45;;;;;;;8.05;5.35;;;36.20;52.60;;;;;;5029621;28;20029;-76
2023/07/08 13:01:23;;;;;;;8.82;5.47;;;36.20;50.00;;;;;;5029503;28;20056;-78
2023/07/08 13:03:51;;;;;;;8.63;5.43;;;36.20;50.70;;;;;;5027609;28;20025;-76
2023/07/08 13:06:22;;;;;;;9.45;4.97;;;36.20;48.40;;;;;;5026125;28;20564;-77
2023/07/08 13:08:49;;;;;;;7.90;5.50;;;36.20;50.50;;;;;;5027194;28;20017;-77
2023/07/08 13:11:18;;;;;;;7.65;5.07;;;36.30;47.80;;;;;;5029800;28;20365;-77
2023/07/08 13:14:06;;;;;;;7.38;4.97;;;36.50;48.30;;;;;;5031345;28;20096;-77
2023/07/08 13:16:34;;;;;;;8.20;5.38;;;36.50;53.20;;;;;;5031643;28;20026;-78
2023/07/08 13:19:00;;;;;;;8.57;5.50;;;36.50;48.70;;;;;;5032386;28;20090;-78
2023/07/08 13:21:27;;;;;;;8.35;4.95;;;36.60;52.10;;;;;;5032858;28;20033;-77
2023/07/08 13:23:54;;;;;;;7.80;4.75;;;36.60;51.30;;;;;;5032947;28;20065;-77
2023/07/08 13:26:22;;;;;;;10.30;5.95;;;36.60;50.90;;;;;;5032774;28;20061;-77
2023/07/08 13:28:49;;;;;;;8.50;5.22;;;36.70;50.00;;;;;;5032592;28;20100;-78
2023/07/08 13:31:16;;;;;;;7.03;4.97;;;36.80;47.50;;;;;;5032054;28;20073;-78
2023/07/08 13:33:47;;;;;;;8.10;5.15;;;36.90;51.50;;;;;;5032304;28;20025;-78
2023/07/08 13:36:16;;;;;;;6.78;4.32;;;36.90;50.20;;;;;;5030816;28;20088;-77
2023/07/08 13:38:42;;;;;;;8.57;4.93;;;36.90;53.60;;;;;;5032274;28;20106;-77
2023/07/08 13:41:08;;;;;;;8.82;5.38;;;36.90;49.60;;;;;;5031946;28;20084;-76
2023/07/08 13:43:38;;;;;;;9.20;5.90;;;36.80;45.10;;;;;;5031647;28;20721;-77
2023/07/08 13:46:04;;;;;;;7.80;5.60;;;36.70;42.70;;;;;;5032777;28;20021;-79
2023/07/08 13:48:33;;;;;;;7.57;5.18;;;36.60;45.50;;;;;;5032448;28;20033;-79
2023/07/08 13:51:02;;;;;;;;;;;36.50;46.10;;;;;;5032523;28;20013;-78
2023/07/08 13:53:46;;;;;;;9.60;5.30;;;36.50;54.20;;;;;;5032676;28;19912;-79
2023/07/08 13:56:24;;;;;;;8.45;4.95;;;36.50;48.00;;;;;;5032291;28;20014;-78
2023/07/08 13:59:01;;;;;;;9.07;5.22;;;36.50;46.40;;;;;;5031889;28;20467;-79
2023/07/08 14:01:28;;;;;;;8.50;4.45;;;36.70;55.60;;;;;;5030331;28;20029;-78
2023/07/08 14:03:55;;;;;;;7.97;5.05;;;36.60;55.10;;;;;;5031897;28;20026;-76
2023/07/08 14:06:25;;;;;;;10.30;5.90;;;36.70;53.00;;;;;;5031395;28;20029;-77
2023/07/08 14:08:55;;;;;;;;;;;36.80;44.90;;;;;;5032101;28;20444;-78
2023/07/08 14:11:20;;;;;;;9.25;5.70;;;36.90;42.10;;;;;;5031620;28;19911;-78
2023/07/08 14:13:46;;;;;;;11.43;6.53;;;36.90;45.40;;;;;;5031563;28;20029;-78
2023/07/08 14:16:20;;;;;;;8.27;5.53;;;36.90;44.10;;;;;;5031408;28;20021;-78
2023/07/08 14:18:46;;;;;;;9.13;5.35;;;36.90;44.80;;;;;;5030034;28;20369;-77
2023/07/08 14:21:12;;;;;;;8.30;4.95;;;36.90;45.20;;;;;;5031097;28;20036;-77
2023/07/08 14:23:37;;;;;;;6.70;4.30;;;37.10;52.20;;;;;;5030930;28;20033;-77
2023/07/08 14:26:09;;;;;;;7.93;4.88;;;37.10;53.00;;;;;;5030999;28;20029;-78
2023/07/08 14:28:35;;;;;;;9.20;5.45;;;37.10;49.90;;;;;;5029985;28;20040;-78
2023/07/08 14:31:00;;;;;;;10.60;5.65;;;37.10;46.10;;;;;;5031303;28;20029;-77
2023/07/08 14:33:26;;;;;;;8.88;5.47;;;37.20;44.20;;;;;;5029598;28;20029;-76
2023/07/08 14:35:51;;;;;;;8.98;5.45;;;37.20;46.90;;;;;;5029460;28;20495;-78
2023/07/08 14:38:17;;;;;;;11.52;5.57;;;37.20;51.50;;;;;;5029660;28;20029;-77
2023/07/08 14:40:43;;;;;;;8.50;4.90;;;37.20;50.50;;;;;;5029652;28;20017;-78
2023/07/08 14:43:27;;;;;;;10.82;6.22;;;37.10;49.70;;;;;;5029210;28;20025;-76
2023/07/08 14:45:55;;;;;;;10.20;5.82;;;37.00;45.00;;;;;;5029744;28;20030;-77
2023/07/08 14:48:21;;;;;;;8.40;5.28;;;37.10;51.20;;;;;;5029842;28;20036;-78
2023/07/08 14:50:47;;;;;;;8.40;4.80;;;36.90;43.20;;;;;;5032376;28;20483;-78
2023/07/08 14:53:14;;;;;;;9.25;4.80;;;36.90;47.70;;;;;;5032373;28;20029;-76
2023/07/08 14:55:42;;;;;;;8.18;5.18;;;36.80;52.80;;;;;;5031368;28;20164;-76
2023/07/08 14:58:17;;;;;;;7.93;4.85;;;36.70;45.10;;;;;;5031530;28;20026;-77
2023/07/08 15:00:42;;;;;;;8.48;5.30;;;36.70;49.40;;;;;;5030718;28;20025;-76
2023/07/08 15:03:08;;;;;;;7.03;4.32;;;36.80;51.20;;;;;;5031370;28;20438;-77
2023/07/08 15:05:33;;;;;;;7.90;4.30;;;36.80;58.30;;;;;;5030380;28;20042;-77
2023/07/08 15:07:59;;;;;;;13.15;5.30;;;36.80;57.80;;;;;;5030601;28;20144;-77
2023/07/08 15:10:29;;;;;;;8.05;4.82;;;36.80;54.20;;;;;;5030080;28;20033;-74
2023/07/08 15:12:56;;;;;;;7.93;4.90;;;36.80;58.50;;;;;;5030552;28;20036;-76
2023/07/08 15:15:34;;;;;;;9.15;4.88;;;36.50;52.10;;;;;;5030252;28;20025;-76
2023/07/08 15:18:02;;;;;;;8.20;5.23;;;36.40;54.10;;;;;;5030820;28;20025;-76
2023/07/08 15:20:27;;;;;;;6.88;3.85;;;36.20;47.60;;;;;;5029909;28;20108;-77
2023/07/08 15:22:53;;;;;;;9.18;4.70;;;36.10;52.10;;;;;;5030642;28;20119;-78
2023/07/08 15:25:19;;;;;;;10.00;5.75;;;36.10;52.10;;;;;;5029941;28;20061;-76
2023/07/08 15:27:50;;;;;;;8.02;4.75;;;36.00;49.00;;;;;;5030142;28;20493;-77
2023/07/08 15:30:23;;;;;;;6.85;4.45;;;36.00;59.40;;;;;;5030153;28;20068;-77
2023/07/08 15:32:49;;;;;;;7.63;4.28;;;36.10;55.20;;;;;;5029808;28;20035;-78
2023/07/08 15:35:20;;;;;;;7.10;4.22;;;36.00;57.10;;;;;;5029787;28;20033;-79
2023/07/08 15:37:47;;;;;;;7.40;4.50;;;36.10;58.10;;;;;;5029705;28;20021;-76
2023/07/08 15:40:15;;;;;;;7.40;4.53;;;36.10;55.30;;;;;;5028658;28;20419;-76
2023/07/08 15:42:41;;;;;;;7.45;4.38;;;36.20;54.70;;;;;;5028396;28;20188;-76
2023/07/08 15:45:14;;;;;;;7.78;4.40;;;36.20;53.30;;;;;;5029148;28;20152;-76
2023/07/08 15:47:39;;;;;;;6.65;3.85;;;36.30;56.20;;;;;;5028528;28;20029;-79
2023/07/08 15:50:11;;;;;;;6.85;4.35;;;36.30;57.60;;;;;;5029856;28;20442;-75
2023/07/08 15:52:37;;;;;;;7.55;4.40;;;36.10;58.30;;;;;;5029668;28;20025;-76
2023/07/08 15:55:03;;;;;;;8.25;4.47;;;36.00;51.00;;;;;;5029015;28;20044;-75
2023/07/08 15:57:28;;;;;;;7.82;4.20;;;35.80;47.70;;;;;;5029444;28;20033;-76
2023/07/08 15:59:54;;;;;;;6.38;3.72;;;35.70;58.80;;;;;;5029309;28;20033;-75
2023/07/08 16:02:27;;;;;;;7.13;4.22;;;35.80;59.40;;;;;;5029463;28;20052;-75
2023/07/08 16:04:53;;;;;;;6.95;4.07;;;35.90;55.50;;;;;;5029318;28;20034;-75
2023/07/08 16:07:18;;;;;;;7.32;4.57;;;35.90;58.80;;;;;;5028845;28;20021;-75
2023/07/08 16:09:44;;;;;;;6.85;4.32;;;35.90;57.10;;;;;;5029541;28;20061;-75
2023/07/08 16:12:16;;;;;;;6.35;4.30;;;35.90;58.90;;;;;;5029403;28;20029;-77
2023/07/08 16:14:41;;;;;;;7.03;4.00;;;35.80;54.50;;;;;;5029504;28;20057;-76
2023/07/08 16:17:09;;;;;;;6.32;4.03;;;35.70;58.20;;;;;;5029300;28;20096;-75
2023/07/08 16:19:35;;;;;;;7.53;4.07;;;35.60;59.10;;;;;;5029308;28;20029;-75
2023/07/08 16:22:01;;;;;;;7.50;4.35;;;35.40;60.50;;;;;;5028769;28;20025;-76
2023/07/08 16:24:28;;;;;;;8.43;4.47;;;35.40;60.40;;;;;;5028657;28;20111;-76
2023/07/08 16:26:53;;;;;;;6.88;3.70;;;35.40;54.10;;;;;;5028196;28;20542;-76
2023/07/08 16:29:20;;;;;;;7.82;4.65;;;35.40;59.70;;;;;;5029122;28;20112;-76
2023/07/08 16:31:46;;;;;;;7.22;3.97;;;35.40;51.70;;;;;;5029261;28;20380;-75
2023/07/08 16:34:14;;;;;;;6.50;3.80;;;35.50;58.40;;;;;;5027908;28;20021;-76
2023/07/08 16:36:40;;;;;;;6.95;3.55;;;35.40;57.60;;;;;;5028688;28;20033;-75
2023/07/08 16:39:06;;;;;;;6.75;4.45;;;35.40;60.00;;;;;;5028969;28;20025;-75
2023/07/08 16:41:37;;;;;;;7.45;4.45;;;35.30;59.30;;;;;;5029043;28;20026;-76
2023/07/08 16:44:11;;;;;;;7.03;4.00;;;35.20;55.90;;;;;;5029021;28;20029;-76
2023/07/08 16:46:37;;;;;;;7.68;4.22;;;35.10;57.50;;;;;;5030394;28;20112;-75
2023/07/08 16:49:03;;;;;;;7.15;4.10;;;35.10;51.90;;;;;;5033197;28;20104;-76
2023/07/08 16:51:29;;;;;;;6.03;3.63;;;35.00;58.30;;;;;;5032783;28;20029;-76
2023/07/08 16:54:16;;;;;;;9.00;5.30;;;34.90;59.40;;;;;;5032831;28;20375;-76
2023/07/08 16:56:43;;;;;;;6.63;4.35;;;34.90;58.20;;;;;;5033169;28;20033;-76
2023/07/08 16:59:12;;;;;;;6.80;4.18;;;34.80;59.40;;;;;;5033218;28;20025;-76
2023/07/08 17:01:38;;;;;;;7.27;5.27;;;34.80;61.00;;;;;;5033240;28;20049;-77
2023/07/08 17:04:04;;;;;;;6.13;3.75;;;34.70;57.80;;;;;;5033021;28;20063;-76
2023/07/08 17:06:29;;;;;;;5.88;3.90;;;34.60;57.60;;;;;;5032963;28;20021;-76
2023/07/08 17:08:55;;;;;;;7.80;4.18;;;34.60;59.60;;;;;;5033377;28;20385;-75
2023/07/08 17:11:21;;;;;;;6.70;3.95;;;34.60;61.10;;;;;;5033236;28;20026;-76
2023/07/08 17:13:47;;;;;;;6.72;3.92;;;34.70;61.30;;;;;;5033807;28;20045;-77
2023/07/08 17:16:18;;;;;;;6.30;3.38;;;34.60;61.10;;;;;;5033229;28;20072;-76
2023/07/08 17:18:51;;;;;;;7.05;3.50;;;34.60;61.20;;;;;;5033385;28;20101;-76
2023/07/08 17:21:17;;;;;;;7.03;4.28;;;34.50;61.20;;;;;;5033942;28;20052;-75
2023/07/08 17:23:43;;;;;;;6.50;3.95;;;34.50;61.10;;;;;;5034405;28;20017;-76
2023/07/08 17:26:08;;;;;;;6.78;3.78;;;34.40;61.00;;;;;;5035544;28;20533;-76
2023/07/08 17:28:34;;;;;;;6.13;3.60;;;34.30;61.00;;;;;;5034627;28;20063;-76
2023/07/08 17:31:00;;;;;;;6.65;4.22;;;34.30;61.00;;;;;;5033642;28;20029;-76
2023/07/08 17:33:27;;;;;;;7.25;4.07;;;34.30;60.90;;;;;;5036455;28;20494;-76
2023/07/08 17:35:54;;;;;;;6.22;3.65;;;34.20;60.90;;;;;;5036370;28;20026;-76
2023/07/08 17:38:42;;;;;;;6.80;4.20;;;34.20;60.90;;;;;;5034967;28;20032;-76
2023/07/08 17:41:13;;;;;;;7.55;4.22;;;34.20;61.00;;;;;;5034118;28;20112;-76
2023/07/08 17:43:40;;;;;;;6.07;3.90;;;34.10;60.50;;;;;;5033941;28;20024;-76
2023/07/08 17:46:11;;;;;;;7.32;4.30;;;34.10;61.10;;;;;;5035026;28;20156;-76
2023/07/08 17:48:39;;;;;;;6.30;3.55;;;34.00;61.00;;;;;;5033653;28;20049;-76
2023/07/08 17:51:05;;;;;;;6.47;4.70;;;34.00;61.00;;;;;;5033958;28;20112;-75
2023/07/08 17:53:31;;;;;;;6.43;3.88;;;34.00;60.20;;;;;;5034440;28;20040;-76
2023/07/08 17:55:57;;;;;;;7.63;4.15;;;33.90;61.10;;;;;;5031446;28;20030;-76
2023/07/08 17:58:23;;;;;;;6.82;4.38;;;33.90;61.30;;;;;;5032247;28;20094;-77
2023/07/08 18:00:49;;;;;;;7.60;4.40;;;33.80;61.30;;;;;;5031733;28;20031;-76
2023/07/08 18:03:15;;;;;;;6.93;4.22;;;33.70;61.30;;;;;;5031900;28;20013;-76
2023/07/08 18:05:40;;;;;;;6.03;4.15;;;33.70;61.40;;;;;;5029465;28;20045;-76
2023/07/08 18:08:06;;;;;;;7.13;4.15;;;33.60;61.60;;;;;;5028789;28;20017;-76
2023/07/08 18:10:32;;;;;;;6.72;4.25;;;33.60;61.60;;;;;;5030127;28;20027;-76
2023/07/08 18:13:00;;;;;;;6.35;3.92;;;33.50;61.50;;;;;;5029856;28;20057;-76
2023/07/08 18:15:29;;;;;;;8.43;4.65;;;33.50;61.80;;;;;;5031322;28;20025;-77
2023/07/08 18:17:58;;;;;;;6.75;4.22;;;33.40;62.00;;;;;;5031156;28;20377;-77
2023/07/08 18:20:32;;;;;;;7.30;3.93;;;33.40;61.90;;;;;;5031176;28;20025;-75
2023/07/08 18:22:58;;;;;;;5.90;3.38;;;33.20;61.80;;;;;;5031415;28;20268;-75
2023/07/08 18:25:25;;;;;;;6.15;4.10;;;33.10;62.30;;;;;;5031042;28;20076;-76
2023/07/08 18:27:51;;;;;;;6.32;3.92;;;33.00;62.70;;;;;;5031293;28;20095;-77
2023/07/08 18:30:20;;;;;;;6.75;4.60;;;32.90;62.90;;;;;;5028956;28;20610;-76
2023/07/08 18:32:48;;;;;;;5.57;3.22;;;32.70;63.10;;;;;;5029093;28;20037;-76
2023/07/08 18:35:24;;;;;;;5.72;3.67;;;32.60;63.30;;;;;;5028025;28;20025;-75
2023/07/08 18:37:51;;;;;;;5.70;3.63;;;32.50;63.50;;;;;;5029415;28;20128;-77
2023/07/08 18:40:19;;;;;;;5.93;3.45;;;32.40;63.70;;;;;;5029401;28;20029;-76
2023/07/08 18:43:18;;;;;;;5.55;3.60;;;32.30;64.00;;;;;;5029252;28;20021;-76
2023/07/08 18:45:45;;;;;;;;;;;32.20;64.20;;;;;;5014615;28;20042;-76
2023/07/08 18:48:12;;;;;;;6.63;3.35;;;32.10;64.40;;;;;;5028797;28;19905;-76
2023/07/08 18:50:38;;;;;;;8.75;4.80;;;32.00;64.20;;;;;;5028427;28;20032;-76
2023/07/08 18:53:15;;;;;;;6.97;4.05;;;31.80;63.10;;;;;;5029035;28;20159;-76
2023/07/08 18:55:42;;;;;;;6.82;4.00;;;31.70;63.20;;;;;;5030234;28;20036;-75
2023/07/08 18:58:15;;;;;;;6.38;3.90;;;31.50;64.80;;;;;;5030581;28;20053;-75
2023/07/08 19:00:42;;;;;;;8.60;3.97;;;31.50;65.50;;;;;;5029359;28;20076;-75
2023/07/08 19:03:23;;;;;;;5.82;3.67;;;31.40;65.40;;;;;;5028591;28;20061;-76
2023/07/08 19:05:49;;;;;;;7.15;3.90;;;31.30;65.60;;;;;;5030679;28;20095;-75
2023/07/08 19:08:14;;;;;;;6.03;3.60;;;31.30;65.60;;;;;;5029705;28;20848;-77
2023/07/08 19:10:40;;;;;;;6.50;3.90;;;31.20;65.80;;;;;;5030151;28;20021;-75
2023/07/08 19:13:13;;;;;;;5.03;3.35;;;31.20;65.90;;;;;;5030388;28;20021;-74
2023/07/08 19:15:39;;;;;;;5.43;3.50;;;31.00;65.90;;;;;;5030467;28;20052;-75
2023/07/08 19:18:04;;;;;;;6.57;3.75;;;31.00;66.20;;;;;;5030220;28;20438;-76
2023/07/08 19:20:36;;;;;;;6.07;3.83;;;30.90;66.10;;;;;;5029834;28;20448;-76
2023/07/08 19:23:10;;;;;;;5.82;3.80;;;30.90;66.20;;;;;;5030367;28;20025;-75
2023/07/08 19:25:36;;;;;;;5.80;3.75;;;30.80;66.00;;;;;;5029790;28;20057;-74
2023/07/08 19:28:05;;;;;;;6.47;3.80;;;30.70;66.20;;;;;;5030341;28;20025;-75
2023/07/08 19:30:32;;;;;;;7.45;3.67;;;30.70;66.30;;;;;;5030784;28;20053;-75
2023/07/08 19:32:59;;;;;;;6.97;3.55;;;30.60;66.40;;;;;;5031069;28;20479;-76
2023/07/08 19:35:27;;;;;;;6.75;3.90;;;30.60;66.60;;;;;;5030924;28;20061;-75
2023/07/08 19:37:54;;;;;;;7.35;3.65;;;30.50;66.60;;;;;;5030956;28;20052;-77
2023/07/08 19:40:22;;;;;;;6.13;3.95;;;30.40;66.60;;;;;;5030453;28;20060;-76
2023/07/08 19:42:50;;;;;;;6.53;4.30;;;30.30;66.70;;;;;;5030932;28;20032;-75
2023/07/08 19:45:21;;;;;;;5.75;3.65;;;30.30;66.80;;;;;;5030178;28;20042;-75
2023/07/08 19:47:48;;;;;;;6.50;3.85;;;30.20;66.80;;;;;;5030734;28;20030;-77
2023/07/08 19:50:14;;;;;;;11.13;4.40;;;30.20;66.90;;;;;;5030489;28;20108;-76
2023/07/08 19:52:40;;;;;;;7.85;3.95;;;30.10;66.80;;;;;;5029982;28;20104;-77
2023/07/08 19:55:06;;;;;;;7.95;3.58;;;30.00;66.80;;;;;;5030564;28;20546;-77
2023/07/08 19:57:42;;;;;;;5.95;3.47;;;30.00;66.80;;;;;;5030312;28;20107;-76
2023/07/08 20:00:39;;;;;;;6.63;3.75;;;29.90;66.70;;;;;;5030617;28;20040;-76
2023/07/08 20:03:08;;;;;;;7.70;3.50;;;29.80;66.60;;;;;;5029513;28;20057;-76
2023/07/08 20:05:35;;;;;;;;;;;29.80;66.70;;;;;;5030342;28;20034;-76
2023/07/08 20:08:26;;;;;;;6.20;3.60;;;29.70;66.60;;;;;;5030340;28;19905;-75
2023/07/08 20:10:53;;;;;;;7.28;3.88;;;29.60;66.60;;;;;;5030080;28;20044;-75
2023/07/08 20:13:23;;;;;;;7.10;4.47;;;29.60;66.60;;;;;;5030106;28;20055;-75
2023/07/08 20:15:49;;;;;;;6.10;3.78;;;29.50;66.60;;;;;;5030190;28;20037;-76
2023/07/08 20:18:16;;;;;;;6.03;3.85;;;29.50;66.60;;;;;;5028457;28;20021;-76
2023/07/08 20:20:42;;;;;;;7.65;3.85;;;29.40;66.70;;;;;;5030014;28;20021;-75
2023/07/08 20:23:15;;;;;;;8.93;4.65;;;29.40;66.70;;;;;;5029550;28;20026;-75
2023/07/08 20:25:43;;;;;;;6.75;4.05;;;29.30;66.80;;;;;;5029626;28;20057;-75
2023/07/08 20:28:11;;;;;;;8.23;4.10;;;29.20;66.80;;;;;;5029977;28;20503;-75
2023/07/08 20:30:37;;;;;;;8.90;4.07;;;29.20;66.90;;;;;;5029571;28;20036;-75
2023/07/08 20:33:03;;;;;;;8.23;5.13;;;29.10;66.60;;;;;;5029486;28;20817;-75
2023/07/08 20:35:29;;;;;;;8.55;4.82;;;29.00;66.40;;;;;;5029561;28;20056;-75
2023/07/08 20:37:55;;;;;;;8.32;4.72;;;29.00;66.50;;;;;;5029990;28;20022;-75
2023/07/08 20:40:27;;;;;;;10.23;4.93;;;28.90;66.70;;;;;;5029429;28;20025;-75
2023/07/08 20:42:53;;;;;;;7.80;4.15;;;28.80;66.80;;;;;;5028747;28;20025;-75
2023/07/08 20:45:28;;;;;;;9.07;4.50;;;28.80;67.10;;;;;;5029644;28;20052;-75
2023/07/08 20:47:53;;;;;;;8.20;4.32;;;28.70;67.10;;;;;;5027834;28;20361;-75
2023/07/08 20:50:23;;;;;;;8.77;4.38;;;28.70;66.80;;;;;;5030087;28;20037;-75
2023/07/08 20:52:51;;;;;;;9.80;4.80;;;28.60;66.80;;;;;;5030144;28;20113;-76
2023/07/08 20:55:18;;;;;;;8.43;4.68;;;28.60;67.10;;;;;;5029187;28;20074;-75
2023/07/08 20:57:46;;;;;;;9.48;4.53;;;28.60;67.40;;;;;;5030004;28;20446;-75
2023/07/08 21:00:29;;;;;;;9.57;4.50;;;28.50;67.50;;;;;;5029555;28;20128;-76
2023/07/08 21:02:56;;;;;;;8.70;4.50;;;28.40;67.30;;;;;;5029446;28;20033;-76
2023/07/08 21:05:24;;;;;;;7.95;4.75;;;28.40;67.20;;;;;;5029496;28;20124;-75
2023/07/08 21:07:51;;;;;;;9.65;4.88;;;28.30;67.40;;;;;;5029404;28;20087;-76
2023/07/08 21:10:19;;;;;;;9.85;4.60;;;28.30;67.20;;;;;;5030141;28;20526;-76
2023/07/08 21:12:46;;;;;;;10.52;5.45;;;28.30;67.70;;;;;;5030043;28;20028;-76
2023/07/08 21:15:13;;;;;;;9.55;5.63;;;28.20;67.50;;;;;;5029934;28;20034;-75
2023/07/08 21:17:39;;;;;;;11.35;6.00;;;28.20;67.70;;;;;;5027951;28;20395;-76
2023/07/08 21:20:26;;;;;;;8.73;4.80;;;28.10;67.60;;;;;;5030333;28;20088;-75
2023/07/08 21:22:55;;;;;;;5.78;3.63;;;28.10;68.10;;;;;;5029678;28;20034;-74
2023/07/08 21:25:23;;;;;;;6.43;3.97;;;28.10;68.90;;;;;;5029728;28;20072;-74
2023/07/08 21:27:49;;;;;;;7.05;3.40;;;28.10;69.00;;;;;;5029592;28;20046;-73
2023/07/08 21:30:16;;;;;;;7.03;4.07;;;28.00;69.10;;;;;;5029280;28;20068;-74